Dades meteomassalio
Diari Summary for Febrer 13, 2017 Units:  Metric    English   Both
« Previous Day
Next Day »
Diari Semanal Mensual Anual Personalitzat
  Maxima: Minima: Mijana:
Temperatura: 14.1 °C 8.6 °C 11.8 °C
Rosada: 11.7 °C 7.0 °C 9.3 °C
Humitat: 93 % 70 % 84 %
Velocitat del vent: 40.7 km/h 0.0 km/h 14.3 km/h
Racha vent: 40.7 km/h - -
Vent:- - ESE
Pressio: 1016.1 hPa 1007.3 hPa -
Pluja: 9.9 mm    
Historical Graphs
 
 
Tabular Data for Febrer 13, 2017
Time Temperature Dew Point Pressure Wind Wind Speed Wind Gust Humidity Rainfall Rate (Hourly) solar Conditions
00:00 12.0 °C 8.1 °C 1010.0 hPa SE 20.4 km/h 20.4 km/h 77 % 0.0 mm 0.0 W/m2 CLR
00:05 12.1 °C 8.2 °C 1010.0 hPa SE 24.1 km/h 24.1 km/h 77 % 0.0 mm 0.0 W/m2 CLR
00:10 12.1 °C 8.2 °C 1010.0 hPa ESE 24.1 km/h 24.1 km/h 77 % 0.0 mm 0.0 W/m2 CLR
00:15 12.0 °C 7.9 °C 1010.0 hPa SE 20.4 km/h 20.4 km/h 76 % 0.0 mm 0.0 W/m2 CLR
00:20 12.0 °C 7.9 °C 1010.0 hPa ESE 18.5 km/h 18.5 km/h 76 % 0.0 mm 0.0 W/m2 CLR
00:25 11.9 °C 8.1 °C 1010.0 hPa ESE 19.3 km/h 19.3 km/h 77 % 0.0 mm 0.0 W/m2 CLR
00:30 12.0 °C 8.1 °C 1010.0 hPa ESE 24.1 km/h 24.1 km/h 77 % 0.0 mm 0.0 W/m2 CLR
00:35 11.9 °C 8.1 °C 1010.0 hPa ESE 22.2 km/h 22.2 km/h 77 % 0.0 mm 0.0 W/m2 CLR
00:40 12.0 °C 8.1 °C 1010.0 hPa SE 18.5 km/h 18.5 km/h 77 % 0.0 mm 0.0 W/m2 CLR
00:45 11.9 °C 7.8 °C 1010.0 hPa ESE 25.9 km/h 25.9 km/h 76 % 0.0 mm 0.0 W/m2 CLR
00:50 12.1 °C 7.8 °C 1009.7 hPa SE 31.5 km/h 31.5 km/h 75 % 0.0 mm 0.0 W/m2 CLR
00:55 12.1 °C 7.8 °C 1010.0 hPa SE 27.8 km/h 27.8 km/h 75 % 0.0 mm 0.0 W/m2 CLR
01:00 12.2 °C 7.7 °C 1009.7 hPa SSE 29.6 km/h 29.6 km/h 74 % 0.0 mm 0.0 W/m2 CLR
01:05 12.2 °C 7.3 °C 1009.7 hPa SE 33.3 km/h 33.3 km/h 72 % 0.0 mm 0.0 W/m2 CLR
01:11 12.3 °C 7.0 °C 1009.7 hPa ESE 40.7 km/h 40.7 km/h 70 % 0.0 mm 0.0 W/m2 CLR
01:15 12.4 °C 7.1 °C 1009.7 hPa SE 29.6 km/h 29.6 km/h 70 % 0.0 mm 0.0 W/m2 CLR
01:21 12.4 °C 7.1 °C 1009.7 hPa SSE 27.8 km/h 27.8 km/h 70 % 0.0 mm 0.0 W/m2 CLR
01:26 12.3 °C 7.2 °C 1009.7 hPa ESE 22.5 km/h 22.5 km/h 71 % 0.0 mm 0.0 W/m2 CLR
01:31 12.2 °C 7.4 °C 1009.7 hPa East 20.4 km/h 20.4 km/h 73 % 0.0 mm 0.0 W/m2 CLR
01:36 12.1 °C 7.6 °C 1009.7 hPa SE 24.1 km/h 24.1 km/h 74 % 0.0 mm 0.0 W/m2 CLR
01:41 12.0 °C 7.7 °C 1009.4 hPa ESE 18.5 km/h 18.5 km/h 75 % 0.0 mm 0.0 W/m2 CLR
01:46 11.9 °C 7.7 °C 1009.7 hPa SSE 30.6 km/h 30.6 km/h 75 % 0.0 mm 0.0 W/m2 CLR
01:51 12.0 °C 7.9 °C 1009.4 hPa ESE 25.9 km/h 25.9 km/h 76 % 0.0 mm 0.0 W/m2 CLR
01:56 12.0 °C 7.9 °C 1009.4 hPa ESE 24.1 km/h 24.1 km/h 76 % 0.0 mm 0.0 W/m2 CLR
02:01 11.9 °C 7.8 °C 1009.4 hPa SE 27.8 km/h 27.8 km/h 76 % 0.0 mm 0.0 W/m2 CLR
02:06 11.9 °C 8.0 °C 1009.4 hPa SE 29.6 km/h 29.6 km/h 77 % 0.0 mm 0.0 W/m2 CLR
02:11 11.9 °C 8.0 °C 1009.0 hPa SE 24.1 km/h 24.1 km/h 77 % 0.0 mm 0.0 W/m2 CLR
02:16 11.9 °C 8.0 °C 1009.4 hPa SE 24.1 km/h 24.1 km/h 77 % 0.0 mm 0.0 W/m2 CLR
02:21 11.9 °C 8.0 °C 1009.4 hPa SE 29.6 km/h 29.6 km/h 77 % 0.0 mm 0.0 W/m2 CLR
02:26 11.9 °C 8.1 °C 1009.4 hPa SE 29.0 km/h 29.0 km/h 77 % 0.0 mm 0.0 W/m2 CLR
02:31 11.9 °C 8.2 °C 1009.4 hPa SE 25.9 km/h 25.9 km/h 78 % 0.0 mm 0.0 W/m2 CLR
02:36 11.8 °C 8.1 °C 1009.4 hPa SE 27.8 km/h 27.8 km/h 78 % 0.0 mm 0.0 W/m2 CLR
02:41 11.8 °C 8.3 °C 1009.0 hPa ESE 22.2 km/h 22.2 km/h 79 % 0.0 mm 0.0 W/m2 CLR
02:46 11.7 °C 8.2 °C 1009.0 hPa SE 20.4 km/h 20.4 km/h 79 % 0.0 mm 0.0 W/m2 CLR
02:51 11.7 °C 8.2 °C 1009.0 hPa SE 18.5 km/h 18.5 km/h 79 % 0.0 mm 0.0 W/m2 CLR
02:56 11.7 °C 8.2 °C 1008.7 hPa ESE 22.2 km/h 22.2 km/h 79 % 0.0 mm 0.0 W/m2 CLR
03:01 11.7 °C 8.2 °C 1008.7 hPa SE 31.5 km/h 31.5 km/h 79 % 0.0 mm 0.0 W/m2 CLR
03:06 11.7 °C 8.2 °C 1008.7 hPa SE 35.2 km/h 35.2 km/h 79 % 0.0 mm 0.0 W/m2 CLR
03:11 11.8 °C 8.3 °C 1008.4 hPa ESE 37.0 km/h 37.0 km/h 79 % 0.0 mm 0.0 W/m2 CLR
03:16 11.8 °C 8.3 °C 1008.4 hPa SE 31.5 km/h 31.5 km/h 79 % 0.0 mm 0.0 W/m2 CLR
03:21 11.7 °C 8.2 °C 1008.4 hPa SE 25.9 km/h 25.9 km/h 79 % 0.0 mm 0.0 W/m2 CLR
03:26 11.7 °C 8.2 °C 1008.4 hPa SE 19.3 km/h 19.3 km/h 79 % 0.0 mm 0.0 W/m2 CLR
03:31 11.6 °C 8.1 °C 1008.0 hPa SE 24.1 km/h 24.1 km/h 79 % 0.0 mm 0.0 W/m2 CLR
03:36 11.7 °C 8.2 °C 1008.4 hPa ESE 31.5 km/h 31.5 km/h 79 % 0.0 mm 0.0 W/m2 CLR
03:41 11.6 °C 8.1 °C 1008.7 hPa SE 22.2 km/h 22.2 km/h 79 % 0.0 mm 0.0 W/m2 CLR
03:46 11.6 °C 8.1 °C 1008.7 hPa SE 24.1 km/h 24.1 km/h 79 % 0.0 mm 0.0 W/m2 CLR
03:51 11.6 °C 8.1 °C 1008.4 hPa SE 18.5 km/h 18.5 km/h 79 % 0.0 mm 0.0 W/m2 CLR
03:56 11.6 °C 8.1 °C 1008.4 hPa ESE 20.4 km/h 20.4 km/h 79 % 0.0 mm 0.0 W/m2 CLR
04:01 11.6 °C 8.1 °C 1008.4 hPa ESE 29.6 km/h 29.6 km/h 79 % 0.0 mm 0.0 W/m2 CLR
04:06 11.7 °C 8.2 °C 1008.7 hPa ESE 27.8 km/h 27.8 km/h 79 % 0.0 mm 0.0 W/m2 CLR
04:11 11.7 °C 8.2 °C 1008.7 hPa ESE 24.1 km/h 24.1 km/h 79 % 0.0 mm 0.0 W/m2 CLR
04:16 11.7 °C 8.2 °C 1008.7 hPa ESE 29.6 km/h 29.6 km/h 79 % 0.0 mm 0.0 W/m2 CLR
04:21 11.7 °C 8.2 °C 1008.7 hPa ESE 31.5 km/h 31.5 km/h 79 % 0.0 mm 0.0 W/m2 CLR
04:26 11.7 °C 8.2 °C 1008.7 hPa ESE 17.7 km/h 17.7 km/h 79 % 0.0 mm 0.0 W/m2 CLR
04:31 11.7 °C 8.2 °C 1008.7 hPa ESE 25.9 km/h 25.9 km/h 79 % 0.0 mm 0.0 W/m2 CLR
04:36 11.7 °C 8.2 °C 1008.7 hPa SE 20.4 km/h 20.4 km/h 79 % 0.0 mm 0.0 W/m2 CLR
04:41 11.8 °C 8.1 °C 1008.7 hPa ESE 20.4 km/h 20.4 km/h 78 % 0.0 mm 0.0 W/m2 CLR
04:46 11.8 °C 8.1 °C 1008.4 hPa ESE 16.7 km/h 16.7 km/h 78 % 0.0 mm 0.0 W/m2 CLR
04:51 11.8 °C 8.1 °C 1008.4 hPa ESE 14.8 km/h 14.8 km/h 78 % 0.0 mm 0.0 W/m2 CLR
04:56 11.8 °C 8.1 °C 1008.7 hPa SSE 7.4 km/h 7.4 km/h 78 % 0.0 mm 0.0 W/m2 CLR
05:01 11.8 °C 8.1 °C 1008.7 hPa ESE 14.8 km/h 14.8 km/h 78 % 0.0 mm 0.0 W/m2 CLR
05:06 11.8 °C 8.1 °C 1008.7 hPa SE 4.8 km/h 4.8 km/h 78 % 0.0 mm 0.0 W/m2 CLR
05:11 11.8 °C 8.1 °C 1008.7 hPa East 14.8 km/h 14.8 km/h 78 % 0.0 mm 0.0 W/m2 CLR
05:16 11.8 °C 8.1 °C 1008.4 hPa ENE 11.1 km/h 11.1 km/h 78 % 0.0 mm 0.0 W/m2 CLR
05:21 11.8 °C 8.3 °C 1008.4 hPa East 16.7 km/h 16.7 km/h 79 % 0.0 mm 0.0 W/m2 CLR
05:26 11.7 °C 8.4 °C 1008.4 hPa ESE 11.1 km/h 11.1 km/h 80 % 0.0 mm 0.0 W/m2 CLR
05:31 11.7 °C 8.4 °C 1008.4 hPa SE 18.5 km/h 18.5 km/h 80 % 0.0 mm 0.0 W/m2 CLR
05:36 11.7 °C 8.4 °C 1008.4 hPa SE 20.4 km/h 20.4 km/h 80 % 0.0 mm 0.0 W/m2 CLR
05:41 11.8 °C 8.5 °C 1008.4 hPa SE 22.2 km/h 22.2 km/h 80 % 0.0 mm 0.0 W/m2 CLR
05:46 11.9 °C 8.6 °C 1008.4 hPa SSE 20.4 km/h 20.4 km/h 80 % 0.0 mm 0.0 W/m2 CLR
05:51 11.9 °C 8.6 °C 1008.4 hPa ESE 17.7 km/h 17.7 km/h 80 % 0.0 mm 0.0 W/m2 CLR
05:56 11.9 °C 8.6 °C 1008.4 hPa ESE 22.2 km/h 22.2 km/h 80 % 0.0 mm 0.0 W/m2 CLR
06:01 12.1 °C 8.9 °C 1008.4 hPa SE 18.5 km/h 18.5 km/h 81 % 0.0 mm 0.0 W/m2 CLR
06:06 12.1 °C 8.9 °C 1008.4 hPa SE 24.1 km/h 24.1 km/h 81 % 0.0 mm 0.0 W/m2 CLR
06:11 12.1 °C 8.9 °C 1008.4 hPa ESE 24.1 km/h 24.1 km/h 81 % 0.0 mm 0.0 W/m2 CLR
06:16 12.1 °C 8.9 °C 1008.4 hPa ESE 24.1 km/h 24.1 km/h 81 % 0.0 mm 0.0 W/m2 CLR
06:21 12.1 °C 8.9 °C 1008.7 hPa SE 25.9 km/h 25.9 km/h 81 % 0.0 mm 0.0 W/m2 CLR
06:26 12.1 °C 9.1 °C 1008.4 hPa SSE 31.5 km/h 31.5 km/h 82 % 0.0 mm 0.0 W/m2 CLR
06:31 12.2 °C 9.2 °C 1008.4 hPa ESE 20.4 km/h 20.6 km/h 82 % 0.0 mm 0.0 W/m2 CLR
06:36 12.2 °C 9.2 °C 1008.0 hPa ESE 27.8 km/h 27.8 km/h 82 % 0.0 mm 0.0 W/m2 CLR
06:41 12.2 °C 9.1 °C 1008.0 hPa ESE 25.9 km/h 25.9 km/h 81 % 0.0 mm 0.0 W/m2 CLR
06:46 12.4 °C 9.2 °C 1008.0 hPa ESE 33.3 km/h 33.3 km/h 81 % 0.0 mm 0.0 W/m2 CLR
06:51 12.4 °C 9.1 °C 1008.0 hPa ESE 33.3 km/h 33.3 km/h 80 % 0.0 mm 0.0 W/m2 CLR
06:56 12.3 °C 9.2 °C 1008.4 hPa ESE 27.8 km/h 27.8 km/h 81 % 0.0 mm 0.0 W/m2 CLR
07:01 12.4 °C 9.3 °C 1008.0 hPa ESE 31.5 km/h 31.5 km/h 81 % 0.0 mm 0.0 W/m2 CLR
07:06 12.4 °C 9.2 °C 1008.0 hPa East 35.2 km/h 35.2 km/h 81 % 0.0 mm 0.0 W/m2 CLR
07:12 12.4 °C 9.2 °C 1008.0 hPa ESE 29.6 km/h 29.6 km/h 81 % 0.0 mm 0.0 W/m2 CLR
07:17 12.4 °C 9.3 °C 1008.0 hPa SE 27.4 km/h 27.4 km/h 81 % 0.0 mm 0.0 W/m2 CLR
07:22 12.4 °C 9.2 °C 1008.0 hPa SE 25.9 km/h 25.9 km/h 81 % 0.0 mm 0.0 W/m2 CLR
07:27 12.4 °C 9.3 °C 1008.0 hPa East 24.1 km/h 24.1 km/h 81 % 0.0 mm 0.0 W/m2 CLR
07:32 12.4 °C 9.3 °C 1008.0 hPa ESE 27.8 km/h 27.8 km/h 81 % 0.0 mm 0.0 W/m2 CLR
07:37 12.4 °C 9.3 °C 1008.0 hPa ESE 24.1 km/h 24.1 km/h 81 % 0.0 mm 0.0 W/m2 CLR
07:42 12.4 °C 9.2 °C 1007.7 hPa East 22.5 km/h 22.5 km/h 81 % 0.0 mm 0.0 W/m2 CLR
07:47 12.4 °C 9.3 °C 1007.7 hPa ESE 17.7 km/h 18.8 km/h 81 % 0.0 mm 0.0 W/m2 OVC
07:52 12.4 °C 9.3 °C 1007.7 hPa ESE 24.1 km/h 24.1 km/h 81 % 0.0 mm 0.0 W/m2 OVC
07:57 12.4 °C 9.3 °C 1007.3 hPa East 27.8 km/h 27.8 km/h 81 % 0.0 mm 5.0 W/m2 OVC
08:02 12.4 °C 9.3 °C 1007.3 hPa ESE 20.4 km/h 20.4 km/h 81 % 0.0 mm 7.0 W/m2 BKN
08:07 12.4 °C 9.2 °C 1007.3 hPa ESE 20.4 km/h 20.4 km/h 81 % 0.0 mm 9.0 W/m2 BKN
08:12 12.4 °C 9.2 °C 1007.3 hPa ESE 25.9 km/h 25.9 km/h 81 % 0.0 mm 12.0 W/m2 BKN
08:17 12.4 °C 9.3 °C 1007.7 hPa ESE 18.5 km/h 18.5 km/h 81 % 0.0 mm 18.0 W/m2 BKN
08:22 12.4 °C 9.2 °C 1007.7 hPa ESE 18.5 km/h 18.5 km/h 81 % 0.0 mm 26.0 W/m2 BKN
08:27 12.5 °C 9.3 °C 1007.7 hPa ESE 18.5 km/h 18.5 km/h 81 % 0.0 mm 28.0 W/m2 BKN
08:32 12.5 °C 9.3 °C 1007.7 hPa ESE 20.4 km/h 20.4 km/h 81 % 0.0 mm 49.0 W/m2 SCT
08:37 12.5 °C 9.3 °C 1007.7 hPa ESE 22.2 km/h 22.2 km/h 81 % 0.0 mm 65.0 W/m2 SCT
08:42 12.5 °C 9.5 °C 1007.7 hPa East 20.9 km/h 20.9 km/h 82 % 0.0 mm 81.0 W/m2 FEW
08:47 12.5 °C 9.5 °C 1007.7 hPa East 20.4 km/h 20.4 km/h 82 % 0.0 mm 91.0 W/m2 CLR
08:52 12.6 °C 9.6 °C 1008.0 hPa East 24.1 km/h 24.1 km/h 82 % 0.0 mm 88.0 W/m2 CLR
08:57 12.6 °C 9.6 °C 1008.0 hPa ESE 25.9 km/h 25.9 km/h 82 % 0.0 mm 65.0 W/m2 FEW
09:02 12.7 °C 9.7 °C 1008.4 hPa ESE 25.9 km/h 25.9 km/h 82 % 0.0 mm 74.0 W/m2 FEW
09:07 12.7 °C 9.6 °C 1008.4 hPa East 25.9 km/h 25.9 km/h 81 % 0.0 mm 40.0 W/m2 SCT
09:12 12.8 °C 9.6 °C 1008.7 hPa East 22.2 km/h 22.2 km/h 81 % 0.0 mm 56.0 W/m2 SCT
09:17 12.8 °C 9.4 °C 1008.7 hPa ESE 31.5 km/h 31.5 km/h 80 % 0.0 mm 81.0 W/m2 SCT
09:22 12.9 °C 9.5 °C 1008.7 hPa ESE 18.5 km/h 18.5 km/h 80 % 0.0 mm 72.0 W/m2 FEW
09:27 12.9 °C 9.6 °C 1008.7 hPa SE 19.3 km/h 19.3 km/h 80 % 0.0 mm 70.0 W/m2 FEW
09:32 12.9 °C 9.6 °C 1008.7 hPa ESE 18.5 km/h 18.5 km/h 80 % 0.0 mm 32.0 W/m2 SCT
09:37 12.9 °C 9.6 °C 1008.7 hPa ESE 22.2 km/h 22.2 km/h 80 % 0.0 mm 19.0 W/m2 BKN
09:42 12.9 °C 9.5 °C 1008.7 hPa SE 24.1 km/h 24.1 km/h 80 % 0.0 mm 21.0 W/m2 BKN
09:47 12.8 °C 9.4 °C 1009.0 hPa ESE 18.5 km/h 18.5 km/h 80 % 0.0 mm 25.0 W/m2 BKN
09:52 12.8 °C 9.4 °C 1009.0 hPa SE 20.4 km/h 20.4 km/h 80 % 0.0 mm 18.0 W/m2 BKN
09:57 12.8 °C 9.6 °C 1009.4 hPa ESE 22.2 km/h 22.2 km/h 81 % 0.0 mm 12.0 W/m2 BKN
10:02 12.7 °C 9.6 °C 1009.4 hPa SSE 20.4 km/h 20.4 km/h 81 % 0.0 mm 12.0 W/m2 BKN
10:07 12.6 °C 9.6 °C 1009.4 hPa SE 18.5 km/h 18.5 km/h 82 % 0.0 mm 16.0 W/m2 BKN
10:12 12.4 °C 9.6 °C 1009.4 hPa ESE 14.8 km/h 14.8 km/h 83 % 0.3 mm 26.0 W/m2 RA
10:17 12.3 °C 9.7 °C 1009.4 hPa SE 7.4 km/h 7.4 km/h 84 % 0.3 mm 16.0 W/m2 BKN
10:22 12.2 °C 9.6 °C 1009.4 hPa SE 9.3 km/h 9.3 km/h 84 % 0.3 mm 14.0 W/m2 BKN
10:27 12.1 °C 9.7 °C 1009.4 hPa SE 13.0 km/h 13.0 km/h 85 % 0.3 mm 12.0 W/m2 BKN
10:32 12.1 °C 9.6 °C 1009.7 hPa SE 5.6 km/h 5.6 km/h 85 % 0.3 mm 11.0 W/m2 BKN
10:37 12.0 °C 9.7 °C 1009.7 hPa Calm     86 % 0.3 mm 16.0 W/m2 BKN
10:42 11.9 °C 9.7 °C 1009.7 hPa Calm     86 % 0.5 mm 16.0 W/m2 RA
10:47 11.9 °C 9.6 °C 1009.7 hPa SE 9.3 km/h 9.3 km/h 86 % 0.8 mm 28.0 W/m2 RA
10:52 11.9 °C 9.8 °C 1009.7 hPa SE 5.6 km/h 5.6 km/h 87 % 1.0 mm 35.0 W/m2 RA
10:57 11.8 °C 9.7 °C 1009.7 hPa Calm     87 % 1.3 mm 26.0 W/m2 RA
11:02 11.7 °C 9.7 °C 1010.0 hPa ESE 5.6 km/h 5.6 km/h 88 % 1.5 mm 33.0 W/m2 RA
11:07 11.6 °C 9.8 °C 1010.0 hPa Calm     89 % 2.0 mm 25.0 W/m2 RA
11:12 11.5 °C 9.7 °C 1010.4 hPa SSE 4.8 km/h 4.8 km/h 89 % 1.8 mm 12.0 W/m2 BKN
11:17 11.5 °C 9.9 °C 1010.4 hPa SE 5.6 km/h 5.6 km/h 90 % 2.3 mm 11.0 W/m2 RA
11:22 11.4 °C 9.9 °C 1010.4 hPa SE 9.3 km/h 9.3 km/h 90 % 2.5 mm 12.0 W/m2 RA
11:27 11.4 °C 9.8 °C 1010.4 hPa ESE 11.1 km/h 11.1 km/h 90 % 3.3 mm 30.0 W/m2 RA
11:32 11.3 °C 9.7 °C 1010.4 hPa East 11.1 km/h 11.1 km/h 90 % 4.1 mm 23.0 W/m2 RA
11:37 11.1 °C 9.7 °C 1010.0 hPa ESE 13.0 km/h 13.0 km/h 91 % 4.6 mm 18.0 W/m2 RA
11:42 11.1 °C 9.7 °C 1010.0 hPa ESE 9.7 km/h 9.7 km/h 91 % 4.6 mm 16.0 W/m2 RA
11:47 11.1 °C 9.8 °C 1010.0 hPa SE 7.4 km/h 7.4 km/h 92 % 4.3 mm 23.0 W/m2 RA
11:52 11.1 °C 9.8 °C 1010.0 hPa SE 7.4 km/h 7.4 km/h 92 % 4.6 mm 19.0 W/m2 RA
11:57 11.1 °C 9.8 °C 1010.0 hPa SE 9.3 km/h 9.3 km/h 92 % 4.8 mm 21.0 W/m2 RA
12:02 11.1 °C 9.8 °C 1010.0 hPa Calm     92 % 4.8 mm 25.0 W/m2 RA
12:07 11.1 °C 9.8 °C 1010.0 hPa ESE 7.4 km/h 7.4 km/h 92 % 5.1 mm 33.0 W/m2 RA
12:12 11.0 °C 9.7 °C 1009.7 hPa ENE 14.8 km/h 14.8 km/h 92 % 5.3 mm 39.0 W/m2 RA
12:17 11.1 °C 9.8 °C 1009.4 hPa East 24.1 km/h 24.1 km/h 92 % 5.1 mm 42.0 W/m2 RA
12:22 11.2 °C 9.9 °C 1009.0 hPa East 29.6 km/h 29.6 km/h 92 % 5.1 mm 63.0 W/m2 RA
12:27 11.2 °C 9.9 °C 1009.0 hPa ESE 25.9 km/h 25.9 km/h 92 % 4.3 mm 81.0 W/m2 SCT
12:32 11.3 °C 10.0 °C 1009.0 hPa ESE 19.3 km/h 19.3 km/h 92 % 3.8 mm 84.0 W/m2 FEW
12:37 11.3 °C 10.1 °C 1009.4 hPa ESE 25.9 km/h 25.9 km/h 92 % 3.3 mm 83.0 W/m2 RA
12:42 11.4 °C 10.1 °C 1009.0 hPa ESE 24.1 km/h 24.1 km/h 92 % 3.3 mm 72.0 W/m2 FEW
12:47 11.4 °C 9.9 °C 1009.0 hPa ESE 27.8 km/h 27.8 km/h 91 % 3.0 mm 104.0 W/m2 FEW
12:53 11.5 °C 10.1 °C 1009.0 hPa ESE 18.5 km/h 18.5 km/h 91 % 2.5 mm 107.0 W/m2 CLR
12:58 11.4 °C 10.0 °C 1009.4 hPa SE 14.8 km/h 14.8 km/h 91 % 2.3 mm 107.0 W/m2 CLR
13:03 11.6 °C 10.1 °C 1009.4 hPa SSE 18.5 km/h 18.5 km/h 91 % 1.8 mm 98.0 W/m2 CLR
13:08 11.6 °C 10.2 °C 1009.4 hPa ESE 16.7 km/h 16.7 km/h 91 % 1.3 mm 95.0 W/m2 CLR
13:13 11.7 °C 10.2 °C 1009.4 hPa East 14.8 km/h 14.8 km/h 91 % 0.8 mm 83.0 W/m2 CLR
13:18 11.7 °C 10.3 °C 1009.4 hPa ESE 14.8 km/h 14.8 km/h 91 % 0.5 mm 76.0 W/m2 FEW
13:23 11.7 °C 10.3 °C 1009.4 hPa East 11.3 km/h 11.3 km/h 91 % 0.3 mm 107.0 W/m2 FEW
13:28 11.8 °C 10.3 °C 1009.0 hPa East 16.7 km/h 16.7 km/h 91 % 0.3 mm 244.0 W/m2 CLR
13:33 11.9 °C 10.4 °C 1009.0 hPa ESE 14.8 km/h 14.8 km/h 91 % 0.3 mm 345.0 W/m2 CLR
13:38 12.2 °C 10.7 °C 1009.0 hPa ESE 13.0 km/h 13.0 km/h 91 % 0.0 mm 640.0 W/m2 CLR
13:43 12.3 °C 10.8 °C 1009.0 hPa ESE 16.7 km/h 16.7 km/h 91 % 0.0 mm 274.0 W/m2 CLR
13:48 12.4 °C 10.9 °C 1009.0 hPa ESE 16.7 km/h 16.7 km/h 91 % 0.0 mm 167.0 W/m2 CLR
13:53 12.3 °C 10.7 °C 1009.0 hPa ESE 19.3 km/h 19.3 km/h 90 % 0.0 mm 376.0 W/m2 CLR
13:58 12.5 °C 10.9 °C 1009.0 hPa ESE 14.8 km/h 14.8 km/h 90 % 0.0 mm 392.0 W/m2 CLR
14:03 12.6 °C 11.0 °C 1009.0 hPa East 18.5 km/h 18.5 km/h 90 % 0.0 mm 318.0 W/m2 CLR
14:08 12.7 °C 11.1 °C 1009.0 hPa ESE 22.5 km/h 22.5 km/h 90 % 0.0 mm 213.0 W/m2 CLR
14:13 12.7 °C 10.9 °C 1009.0 hPa ESE 18.5 km/h 18.5 km/h 89 % 0.0 mm 178.0 W/m2 CLR
14:18 12.6 °C 10.8 °C 1009.0 hPa ESE 16.7 km/h 16.7 km/h 89 % 0.0 mm 258.0 W/m2 CLR
14:23 12.7 °C 10.9 °C 1009.0 hPa SE 19.3 km/h 19.3 km/h 89 % 0.0 mm 190.0 W/m2 CLR
14:28 12.7 °C 10.9 °C 1009.0 hPa SE 18.5 km/h 18.5 km/h 89 % 0.0 mm 156.0 W/m2 CLR
14:33 12.7 °C 10.9 °C 1009.0 hPa ESE 11.1 km/h 11.1 km/h 89 % 0.0 mm 206.0 W/m2 CLR
14:38 12.8 °C 11.1 °C 1009.0 hPa East 17.7 km/h 17.7 km/h 89 % 0.0 mm 260.0 W/m2 CLR
14:43 12.9 °C 11.1 °C 1009.0 hPa SE 13.0 km/h 13.0 km/h 89 % 0.0 mm 309.0 W/m2 CLR
14:48 13.0 °C 11.2 °C 1009.0 hPa East 13.0 km/h 13.0 km/h 89 % 0.0 mm 257.0 W/m2 CLR
14:53 13.2 °C 11.4 °C 1009.0 hPa ESE 11.1 km/h 11.1 km/h 89 % 0.0 mm 216.0 W/m2 CLR
14:58 13.2 °C 11.4 °C 1009.0 hPa Calm     89 % 0.0 mm 267.0 W/m2 CLR
15:03 13.4 °C 11.7 °C 1009.0 hPa East 5.6 km/h 5.6 km/h 89 % 0.0 mm 302.0 W/m2 CLR
15:08 13.6 °C 11.7 °C 1009.0 hPa ESE 14.8 km/h 14.8 km/h 88 % 0.0 mm 214.0 W/m2 CLR
15:13 13.7 °C 11.4 °C 1009.0 hPa ESE 13.0 km/h 13.0 km/h 86 % 0.0 mm 193.0 W/m2 CLR
15:18 13.8 °C 11.7 °C 1009.0 hPa ESE 14.5 km/h 14.5 km/h 87 % 0.0 mm 204.0 W/m2 CLR
15:23 13.8 °C 11.3 °C 1009.0 hPa ESE 18.5 km/h 18.5 km/h 85 % 0.0 mm 199.0 W/m2 CLR
15:28 13.8 °C 11.3 °C 1009.0 hPa East 18.5 km/h 18.5 km/h 85 % 0.0 mm 206.0 W/m2 CLR
15:33 13.8 °C 11.2 °C 1009.0 hPa ESE 14.8 km/h 14.8 km/h 84 % 0.0 mm 221.0 W/m2 CLR
15:38 13.8 °C 11.2 °C 1009.0 hPa ESE 13.0 km/h 13.0 km/h 84 % 0.0 mm 211.0 W/m2 CLR
15:43 13.8 °C 11.2 °C 1009.0 hPa SSE 13.0 km/h 13.0 km/h 84 % 0.0 mm 183.0 W/m2 CLR
15:48 13.9 °C 11.1 °C 1009.0 hPa ESE 20.4 km/h 20.4 km/h 83 % 0.0 mm 165.0 W/m2 CLR
15:53 14.0 °C 11.0 °C 1009.0 hPa SE 16.7 km/h 16.7 km/h 82 % 0.0 mm 153.0 W/m2 CLR
15:58 14.1 °C 11.1 °C 1009.4 hPa SSE 5.6 km/h 5.6 km/h 82 % 0.0 mm 83.0 W/m2 CLR
16:03 14.0 °C 11.0 °C 1009.4 hPa SE 13.0 km/h 13.0 km/h 82 % 0.0 mm 69.0 W/m2 FEW
16:08 14.0 °C 11.0 °C 1009.4 hPa SSE 20.4 km/h 20.4 km/h 82 % 0.0 mm 77.0 W/m2 FEW
16:13 14.0 °C 10.8 °C 1009.4 hPa SSE 16.7 km/h 16.7 km/h 81 % 0.0 mm 86.0 W/m2 FEW
16:18 14.0 °C 10.8 °C 1009.4 hPa SE 14.8 km/h 14.8 km/h 81 % 0.0 mm 72.0 W/m2 FEW
16:23 14.0 °C 10.8 °C 1009.4 hPa SSE 13.0 km/h 13.0 km/h 81 % 0.0 mm 77.0 W/m2 FEW
16:28 14.0 °C 11.0 °C 1009.7 hPa SE 13.0 km/h 13.0 km/h 82 % 0.0 mm 95.0 W/m2 FEW
16:33 14.0 °C 10.8 °C 1009.7 hPa South 18.5 km/h 18.5 km/h 81 % 0.0 mm 76.0 W/m2 CLR
16:38 14.0 °C 10.8 °C 1009.7 hPa South 11.1 km/h 11.1 km/h 81 % 0.0 mm 56.0 W/m2 FEW
16:43 14.0 °C 10.8 °C 1010.0 hPa Calm     81 % 0.0 mm 35.0 W/m2 SCT
16:48 14.0 °C 10.8 °C 1010.0 hPa Calm     81 % 0.0 mm 33.0 W/m2 BKN
16:53 13.7 °C 10.5 °C 1010.0 hPa NE 9.7 km/h 9.7 km/h 81 % 0.0 mm 84.0 W/m2 BKN
16:58 13.7 °C 10.7 °C 1010.0 hPa East 3.7 km/h   82 % 0.0 mm 171.0 W/m2 SCT
17:03 13.8 °C 10.8 °C 1010.0 hPa Calm     82 % 0.0 mm 188.0 W/m2 CLR
17:08 13.8 °C 10.4 °C 1010.0 hPa Calm     80 % 0.0 mm 149.0 W/m2 CLR
17:13 13.7 °C 10.3 °C 1010.0 hPa ENE 9.3 km/h 9.3 km/h 80 % 0.0 mm 146.0 W/m2 CLR
17:18 13.6 °C 10.4 °C 1010.4 hPa ENE 5.6 km/h 5.6 km/h 81 % 0.0 mm 118.0 W/m2 CLR
17:23 13.5 °C 10.5 °C 1010.4 hPa ENE 11.3 km/h 11.3 km/h 82 % 0.0 mm 86.0 W/m2 CLR
17:28 13.4 °C 10.8 °C 1010.4 hPa ESE 9.3 km/h 9.3 km/h 84 % 0.0 mm 63.0 W/m2 FEW
17:33 13.4 °C 10.8 °C 1010.4 hPa ESE 9.7 km/h 9.7 km/h 84 % 0.0 mm 42.0 W/m2 BKN
17:38 13.4 °C 10.9 °C 1010.4 hPa East 11.1 km/h 11.1 km/h 85 % 0.0 mm 35.0 W/m2 BKN
17:43 13.4 °C 10.9 °C 1010.4 hPa Calm     85 % 0.0 mm 26.0 W/m2 BKN
17:48 13.3 °C 10.9 °C 1010.7 hPa East 7.4 km/h 7.4 km/h 85 % 0.0 mm 19.0 W/m2 BKN
17:53 13.3 °C 10.7 °C 1010.7 hPa Calm     84 % 0.0 mm 12.0 W/m2 BKN
17:58 13.3 °C 10.8 °C 1010.7 hPa ESE 8.0 km/h 8.0 km/h 85 % 0.0 mm 11.0 W/m2 BKN
18:03 13.2 °C 10.8 °C 1010.7 hPa ESE 11.1 km/h 11.1 km/h 85 % 0.0 mm 9.0 W/m2 BKN
18:08 13.2 °C 10.7 °C 1010.7 hPa SE 5.6 km/h   85 % 0.0 mm 9.0 W/m2 BKN
18:13 13.1 °C 10.7 °C 1010.7 hPa Calm     85 % 0.0 mm 7.0 W/m2 BKN
18:18 13.1 °C 10.6 °C 1010.7 hPa Calm     85 % 0.0 mm 0.0 W/m2 OVC
18:23 13.0 °C 10.7 °C 1011.1 hPa Calm     86 % 0.0 mm 0.0 W/m2 OVC
18:28 12.9 °C 10.7 °C 1011.1 hPa Calm     86 % 0.0 mm 0.0 W/m2 OVC
18:33 12.9 °C 10.7 °C 1011.1 hPa SE 7.4 km/h 7.4 km/h 86 % 0.0 mm 0.0 W/m2 OVC
18:38 12.9 °C 10.6 °C 1011.1 hPa Calm     86 % 0.0 mm 0.0 W/m2 OVC
18:43 12.8 °C 10.6 °C 1011.1 hPa Calm     86 % 0.0 mm 0.0 W/m2 CLR
18:48 12.8 °C 10.5 °C 1011.1 hPa Calm     86 % 0.0 mm 0.0 W/m2 CLR
18:53 12.8 °C 10.5 °C 1011.4 hPa SSE 5.6 km/h 5.6 km/h 86 % 0.0 mm 0.0 W/m2 CLR
18:58 12.8 °C 10.5 °C 1011.4 hPa Calm     86 % 0.0 mm 0.0 W/m2 CLR
19:03 12.7 °C 10.4 °C 1011.4 hPa Calm     86 % 0.0 mm 0.0 W/m2 CLR
19:08 12.7 °C 10.4 °C 1011.7 hPa Calm     86 % 0.0 mm 0.0 W/m2 CLR
19:13 12.5 °C 9.5 °C 1012.4 hPa WNW 27.8 km/h 27.8 km/h 82 % 0.0 mm 0.0 W/m2 CLR
19:18 12.3 °C 9.2 °C 1012.4 hPa WNW 22.5 km/h 22.5 km/h 81 % 0.0 mm 0.0 W/m2 CLR
19:23 11.8 °C 9.2 °C 1012.8 hPa West 18.5 km/h 18.5 km/h 84 % 0.3 mm 0.0 W/m2 RA
19:28 11.4 °C 8.9 °C 1012.8 hPa West 9.7 km/h 9.7 km/h 85 % 0.5 mm 0.0 W/m2 RA
19:33 11.2 °C 8.9 °C 1012.8 hPa Calm     86 % 0.5 mm 0.0 W/m2 CLR
19:38 11.0 °C 8.9 °C 1012.8 hPa Calm     87 % 0.5 mm 0.0 W/m2 CLR
19:43 10.9 °C 8.8 °C 1013.1 hPa Calm     87 % 0.5 mm 0.0 W/m2 RA
19:48 10.8 °C 8.9 °C 1013.1 hPa Calm     88 % 0.5 mm 0.0 W/m2
19:53 10.7 °C 8.9 °C 1013.1 hPa Calm     89 % 0.5 mm 0.0 W/m2 CLR
19:58 10.6 °C 8.9 °C 1013.1 hPa Calm     89 % 0.8 mm 0.0 W/m2 RA
20:03 10.4 °C 8.9 °C 1013.1 hPa Calm     90 % 0.8 mm 0.0 W/m2
20:08 10.4 °C 8.8 °C 1013.1 hPa Calm     90 % 0.8 mm 0.0 W/m2 CLR
20:13 10.3 °C 8.9 °C 1013.4 hPa Calm     91 % 1.0 mm 0.0 W/m2 RA
20:18 10.2 °C 8.8 °C 1013.4 hPa Calm     91 % 1.0 mm 0.0 W/m2
20:23 10.2 °C 8.8 °C 1013.4 hPa Calm     91 % 1.0 mm 0.0 W/m2 RA
20:28 10.2 °C 8.8 °C 1013.4 hPa Calm     91 % 1.3 mm 0.0 W/m2 RA
20:29 10.2 °C 8.8 °C 1013.4 hPa Calm     91 % 1.3 mm 0.0 W/m2 RA
20:34 10.2 °C 8.8 °C 1013.8 hPa Calm     91 % 1.3 mm 0.0 W/m2 CLR
20:39 10.2 °C 8.8 °C 1013.8 hPa Calm     91 % 1.3 mm 0.0 W/m2 CLR
20:44 10.1 °C 8.9 °C 1013.8 hPa Calm     92 % 1.0 mm 0.0 W/m2 CLR
20:49 10.1 °C 8.7 °C 1013.8 hPa Calm     91 % 1.3 mm 0.0 W/m2 RA
20:54 10.1 °C 8.8 °C 1014.1 hPa Calm     92 % 1.3 mm 0.0 W/m2
20:59 10.0 °C 8.8 °C 1014.1 hPa Calm     92 % 1.0 mm 0.0 W/m2 CLR
21:04 9.9 °C 8.7 °C 1014.4 hPa Calm     92 % 1.0 mm 0.0 W/m2 CLR
21:09 9.9 °C 8.7 °C 1014.1 hPa Calm     92 % 1.0 mm 0.0 W/m2 CLR
21:14 9.9 °C 8.7 °C 1014.4 hPa Calm     92 % 0.8 mm 0.0 W/m2 CLR
21:19 9.9 °C 8.7 °C 1014.4 hPa Calm     92 % 0.5 mm 0.0 W/m2 CLR
21:24 9.9 °C 8.7 °C 1014.4 hPa Calm     92 % 0.5 mm 0.0 W/m2 CLR
21:29 9.8 °C 8.6 °C 1014.4 hPa Calm     92 % 0.3 mm 0.0 W/m2 CLR
21:34 9.8 °C 8.6 °C 1014.4 hPa Calm     92 % 0.3 mm 0.0 W/m2 CLR
21:39 9.7 °C 8.5 °C 1014.4 hPa Calm     92 % 0.3 mm 0.0 W/m2 CLR
21:44 9.6 °C 8.4 °C 1014.4 hPa Calm     92 % 0.3 mm 0.0 W/m2 CLR
21:49 9.5 °C 8.3 °C 1014.4 hPa Calm     92 % 0.0 mm 0.0 W/m2 CLR
21:54 9.4 °C 8.2 °C 1014.4 hPa Calm     92 % 0.0 mm 0.0 W/m2 CLR
21:59 9.3 °C 8.1 °C 1014.8 hPa Calm     92 % 0.0 mm 0.0 W/m2 CLR
22:04 9.3 °C 8.2 °C 1014.8 hPa Calm     93 % 0.0 mm 0.0 W/m2 CLR
22:09 9.2 °C 7.9 °C 1014.8 hPa Calm     92 % 0.0 mm 0.0 W/m2 CLR
22:14 9.2 °C 8.1 °C 1014.8 hPa Calm     93 % 0.0 mm 0.0 W/m2 CLR
22:19 9.2 °C 8.1 °C 1014.8 hPa Calm     93 % 0.0 mm 0.0 W/m2 CLR
22:24 9.2 °C 8.1 °C 1014.8 hPa Calm     93 % 0.0 mm 0.0 W/m2 CLR
22:29 9.2 °C 8.2 °C 1015.1 hPa Calm     93 % 0.0 mm 0.0 W/m2 CLR
22:34 9.2 °C 8.2 °C 1015.1 hPa Calm     93 % 0.0 mm 0.0 W/m2 CLR
22:39 9.2 °C 8.2 °C 1015.1 hPa Calm     93 % 0.0 mm 0.0 W/m2 CLR
22:44 9.2 °C 8.2 °C 1015.1 hPa Calm     93 % 0.0 mm 0.0 W/m2 CLR
22:49 9.2 °C 8.2 °C 1015.5 hPa Calm     93 % 0.0 mm 0.0 W/m2 CLR
22:54 9.1 °C 8.1 °C 1015.5 hPa Calm     93 % 0.0 mm 0.0 W/m2 CLR
22:59 9.0 °C 7.9 °C 1015.5 hPa Calm     93 % 0.0 mm 0.0 W/m2 CLR
23:04 8.9 °C 7.9 °C 1015.5 hPa Calm     93 % 0.0 mm 0.0 W/m2 CLR
23:09 8.8 °C 7.8 °C 1015.8 hPa Calm     93 % 0.0 mm 0.0 W/m2 CLR
23:14 8.8 °C 7.7 °C 1015.8 hPa Calm     93 % 0.0 mm 0.0 W/m2 CLR
23:19 8.7 °C 7.7 °C 1015.8 hPa Calm     93 % 0.0 mm 0.0 W/m2 CLR
23:24 8.7 °C 7.7 °C 1015.8 hPa Calm     93 % 0.0 mm 0.0 W/m2 CLR
23:29 8.7 °C 7.6 °C 1015.8 hPa Calm     93 % 0.0 mm 0.0 W/m2 CLR
23:34 8.6 °C 7.6 °C 1015.8 hPa Calm     93 % 0.0 mm 0.0 W/m2 CLR
23:39 8.6 °C 7.6 °C 1016.1 hPa Calm     93 % 0.0 mm 0.0 W/m2 CLR
23:44 8.6 °C 7.6 °C 1016.1 hPa Calm     93 % 0.0 mm 0.0 W/m2 CLR
23:49 8.6 °C 7.6 °C 1016.1 hPa Calm     93 % 0.0 mm 0.0 W/m2 CLR
23:54 8.7 °C 7.7 °C 1016.1 hPa Calm     93 % 0.0 mm 0.0 W/m2 CLR
23:59 8.9 °C 7.9 °C 1016.1 hPa Calm     93 % 0.0 mm 0.0 W/m2 CLR
Lo Temps de Massalio
Compliments of Weather Underground - 1.25 mb